createdAt,value
2018-11-05T00:02:11.981Z,9.50
2018-11-05T00:04:40.339Z,9.40
2018-11-05T00:07:08.542Z,9.40
2018-11-05T00:09:36.761Z,9.40
2018-11-05T00:12:05.824Z,9.40
2018-11-05T00:14:34.028Z,9.50
2018-11-05T00:17:02.221Z,9.40
2018-11-05T00:19:30.426Z,9.50
2018-11-05T00:21:58.645Z,9.40
2018-11-05T00:24:26.854Z,9.40
2018-11-05T00:26:55.277Z,9.40
2018-11-05T00:29:23.500Z,9.40
2018-11-05T00:31:51.745Z,9.40
2018-11-05T00:34:19.984Z,9.50
2018-11-05T00:36:48.218Z,9.40
2018-11-05T00:39:16.563Z,9.40
2018-11-05T00:41:44.768Z,9.40
2018-11-05T00:44:12.984Z,9.50
2018-11-05T00:46:41.183Z,9.50
2018-11-05T00:49:09.372Z,9.50
2018-11-05T00:51:37.620Z,9.40
2018-11-05T00:54:05.783Z,9.50
2018-11-05T00:56:34.317Z,9.50
2018-11-05T00:59:02.497Z,9.40
2018-11-05T01:01:30.766Z,9.40
2018-11-05T01:03:58.857Z,9.40
2018-11-05T01:06:27.043Z,9.40
2018-11-05T01:08:55.270Z,9.50
2018-11-05T01:11:23.427Z,9.50
2018-11-05T01:13:51.922Z,9.50
2018-11-05T01:16:20.134Z,9.50
2018-11-05T01:18:48.386Z,9.40
2018-11-05T01:21:16.566Z,9.40
2018-11-05T01:23:44.786Z,9.40
2018-11-05T01:26:13.006Z,9.40
2018-11-05T01:28:41.163Z,9.40
2018-11-05T01:31:09.322Z,9.50
2018-11-05T01:33:37.511Z,9.50
2018-11-05T01:36:05.694Z,9.60
2018-11-05T01:38:33.862Z,9.70
2018-11-05T01:41:02.044Z,9.60
2018-11-05T01:43:30.205Z,9.70
2018-11-05T01:45:58.405Z,9.60
2018-11-05T01:48:26.673Z,9.60
2018-11-05T01:50:54.900Z,9.60
2018-11-05T01:53:31.827Z,9.60
2018-11-05T01:56:00.348Z,9.60
2018-11-05T01:58:28.590Z,9.60
2018-11-05T02:00:56.835Z,9.70
2018-11-05T02:03:25.089Z,9.70
2018-11-05T02:05:53.302Z,9.70
2018-11-05T02:08:21.553Z,9.70
2018-11-05T02:10:49.823Z,9.70
2018-11-05T02:13:18.020Z,9.70
2018-11-05T02:15:46.252Z,9.70
2018-11-05T02:18:14.448Z,9.60
2018-11-05T02:20:42.760Z,9.60
2018-11-05T02:23:11.031Z,9.80
2018-11-05T02:25:39.313Z,9.80
2018-11-05T02:28:07.556Z,9.80
2018-11-05T02:30:35.791Z,9.70
2018-11-05T02:33:04.070Z,9.70
2018-11-05T02:35:32.325Z,9.70
2018-11-05T02:38:00.562Z,9.60
2018-11-05T02:40:28.782Z,9.70
2018-11-05T02:42:57.010Z,9.70
2018-11-05T02:45:25.246Z,9.70
2018-11-05T02:47:53.473Z,9.70
2018-11-05T02:50:21.738Z,9.70
2018-11-05T02:52:49.996Z,9.70
2018-11-05T02:55:18.214Z,9.80
2018-11-05T02:57:46.452Z,9.90
2018-11-05T03:00:18.022Z,9.80
2018-11-05T03:02:46.263Z,9.90
2018-11-05T03:05:17.572Z,9.90
2018-11-05T03:07:46.635Z,10.00
2018-11-05T03:10:14.981Z,10.00
2018-11-05T03:12:43.735Z,9.90
2018-11-05T03:15:13.215Z,9.90
2018-11-05T03:17:41.498Z,9.90
2018-11-05T03:20:10.793Z,9.90
2018-11-05T03:22:39.584Z,9.90
2018-11-05T03:25:07.924Z,9.90
2018-11-05T03:27:36.262Z,10.00
2018-11-05T03:30:05.230Z,10.00
2018-11-05T03:32:33.446Z,10.00
2018-11-05T03:35:01.640Z,9.90
2018-11-05T03:37:29.849Z,9.90
2018-11-05T03:39:58.110Z,9.90
2018-11-05T03:42:26.326Z,9.90
2018-11-05T03:44:54.549Z,9.90
2018-11-05T03:47:22.776Z,9.90
2018-11-05T03:49:51.016Z,10.00
2018-11-05T03:52:19.256Z,10.00
2018-11-05T03:54:47.486Z,10.10
2018-11-05T03:57:15.741Z,10.10
2018-11-05T03:59:44.040Z,10.10
2018-11-05T04:02:12.315Z,10.00
2018-11-05T04:04:40.591Z,10.00
2018-11-05T04:07:08.874Z,10.00
2018-11-05T04:09:37.170Z,9.90
2018-11-05T04:12:06.094Z,9.90
2018-11-05T04:14:34.387Z,9.90
2018-11-05T04:17:02.652Z,10.10
2018-11-05T04:19:30.935Z,10.10
2018-11-05T04:21:59.225Z,10.10
2018-11-05T04:24:27.481Z,10.20
2018-11-05T04:26:55.754Z,10.20
2018-11-05T04:29:24.085Z,10.20
2018-11-05T04:31:52.349Z,10.20
2018-11-05T04:34:20.584Z,10.20
2018-11-05T04:36:48.802Z,10.20
2018-11-05T04:39:16.984Z,10.20
2018-11-05T04:41:45.164Z,10.20
2018-11-05T04:44:13.401Z,10.30
2018-11-05T04:46:41.604Z,10.30
2018-11-05T04:49:10.176Z,10.30
2018-11-05T04:51:38.491Z,10.30
2018-11-05T04:54:06.931Z,10.30
2018-11-05T04:56:35.133Z,10.20
2018-11-05T04:59:03.356Z,10.20
2018-11-05T05:01:31.626Z,10.20
2018-11-05T05:03:59.904Z,10.20
2018-11-05T05:06:28.166Z,10.30
2018-11-05T05:08:56.438Z,10.20
2018-11-05T05:11:24.766Z,10.20
2018-11-05T05:13:53.324Z,10.20
2018-11-05T05:16:21.699Z,10.20
2018-11-05T05:18:49.871Z,10.20
2018-11-05T05:21:18.148Z,10.20
2018-11-05T05:23:46.413Z,10.20
2018-11-05T05:26:14.670Z,10.20
2018-11-05T05:28:42.890Z,10.30
2018-11-05T05:31:11.147Z,10.30
2018-11-05T05:33:40.082Z,10.20
2018-11-05T05:36:08.269Z,10.30
2018-11-05T05:38:36.511Z,10.20
2018-11-05T05:41:05.062Z,10.20
2018-11-05T05:43:33.268Z,10.30
2018-11-05T05:46:01.531Z,10.30
2018-11-05T05:48:29.809Z,10.30
2018-11-05T05:50:58.081Z,10.20
2018-11-05T05:53:26.331Z,10.20
2018-11-05T05:55:54.585Z,10.20
2018-11-05T05:58:23.718Z,10.20
2018-11-05T06:00:52.034Z,10.20
2018-11-05T06:03:20.295Z,10.30
2018-11-05T06:05:48.619Z,10.30
2018-11-05T06:08:16.774Z,10.20
2018-11-05T06:10:45.010Z,10.30
2018-11-05T06:13:13.385Z,10.40
2018-11-05T06:15:41.665Z,10.30
2018-11-05T06:18:09.927Z,10.20
2018-11-05T06:20:38.181Z,10.30
2018-11-05T06:23:06.417Z,10.30
2018-11-05T06:25:34.686Z,10.30
2018-11-05T06:28:02.975Z,10.20
2018-11-05T06:30:31.212Z,10.10
2018-11-05T06:32:59.563Z,10.10
2018-11-05T06:35:27.889Z,10.20
2018-11-05T06:37:56.127Z,10.20
2018-11-05T06:40:24.378Z,10.20
2018-11-05T06:42:52.674Z,10.30
2018-11-05T06:45:22.130Z,10.30
2018-11-05T06:47:50.837Z,10.30
2018-11-05T06:50:21.149Z,10.30
2018-11-05T06:52:49.530Z,10.30
2018-11-05T06:55:17.777Z,10.30
2018-11-05T06:57:46.145Z,10.30
2018-11-05T07:00:18.367Z,10.30
2018-11-05T07:02:46.633Z,10.40
2018-11-05T07:05:15.221Z,10.40
2018-11-05T07:07:43.523Z,10.40
2018-11-05T07:10:12.777Z,10.30
2018-11-05T07:12:41.611Z,10.40
2018-11-05T07:15:11.511Z,10.60
2018-11-05T07:17:39.878Z,10.40
2018-11-05T07:20:10.606Z,10.40
2018-11-05T07:22:38.919Z,10.40
2018-11-05T07:25:08.754Z,10.40
2018-11-05T07:27:37.152Z,10.40
2018-11-05T07:30:08.185Z,10.40
2018-11-05T07:32:36.400Z,10.40
2018-11-05T07:35:05.739Z,10.40
2018-11-05T07:37:33.968Z,10.50
2018-11-05T07:40:02.179Z,10.60
2018-11-05T07:42:30.377Z,10.70
2018-11-05T07:44:58.622Z,10.70
2018-11-05T07:47:26.828Z,10.60
2018-11-05T07:49:55.127Z,10.70
2018-11-05T07:52:23.314Z,10.80
2018-11-05T07:54:51.502Z,10.70
2018-11-05T07:57:19.749Z,10.70
2018-11-05T07:59:47.990Z,10.70
2018-11-05T08:02:16.301Z,10.70
2018-11-05T08:04:44.486Z,10.80
2018-11-05T08:07:12.692Z,11.00
2018-11-05T08:09:40.928Z,11.00
2018-11-05T08:12:09.162Z,10.90
2018-11-05T08:14:37.413Z,10.90
2018-11-05T08:17:06.363Z,10.90
2018-11-05T08:19:34.570Z,10.90
2018-11-05T08:22:03.146Z,11.00
2018-11-05T08:24:31.392Z,11.00
2018-11-05T08:26:59.747Z,11.10
2018-11-05T08:29:28.631Z,11.10
2018-11-05T08:31:56.876Z,11.00
2018-11-05T08:34:25.123Z,11.10
2018-11-05T08:36:53.674Z,11.10
2018-11-05T08:39:21.920Z,11.20
2018-11-05T08:41:50.160Z,11.00
2018-11-05T08:44:18.376Z,11.00
2018-11-05T08:46:46.645Z,11.00
2018-11-05T08:49:14.816Z,11.10
2018-11-05T08:51:43.390Z,11.10
2018-11-05T08:54:11.341Z,11.10
2018-11-05T08:56:39.505Z,11.20
2018-11-05T08:59:07.763Z,11.30
2018-11-05T09:01:36.028Z,11.30
2018-11-05T09:04:04.313Z,11.30
2018-11-05T09:06:32.520Z,11.40
2018-11-05T09:09:00.734Z,11.40
2018-11-05T09:11:29.288Z,11.30
2018-11-05T09:13:57.212Z,11.30
2018-11-05T09:16:25.414Z,11.20
2018-11-05T09:18:53.597Z,11.20
2018-11-05T09:21:21.827Z,11.10
2018-11-05T09:23:50.045Z,11.20
2018-11-05T09:26:18.232Z,11.20
2018-11-05T09:28:46.506Z,11.20
2018-11-05T09:31:14.726Z,11.20
2018-11-05T09:33:42.921Z,11.30
2018-11-05T09:36:11.116Z,11.30
2018-11-05T09:38:39.356Z,11.30
2018-11-05T09:41:08.310Z,11.30
2018-11-05T09:43:36.629Z,11.20
2018-11-05T09:46:05.006Z,11.30
2018-11-05T09:48:33.192Z,11.30
2018-11-05T09:51:01.394Z,11.40
2018-11-05T09:53:29.629Z,11.40
2018-11-05T09:55:57.946Z,11.40
2018-11-05T09:58:26.177Z,11.40
2018-11-05T10:00:54.388Z,11.40
2018-11-05T10:03:22.827Z,11.30
2018-11-05T10:05:50.766Z,11.50
2018-11-05T10:08:18.972Z,11.50
2018-11-05T10:10:47.173Z,11.60
2018-11-05T10:13:15.384Z,11.70
2018-11-05T10:15:43.634Z,11.70
2018-11-05T10:18:11.836Z,11.90
2018-11-05T10:20:40.053Z,11.60
2018-11-05T10:23:08.247Z,11.70
2018-11-05T10:25:36.451Z,11.80
2018-11-05T10:28:06.125Z,12.00
2018-11-05T10:30:34.346Z,12.00
2018-11-05T10:33:02.607Z,12.20
2018-11-05T10:36:01.218Z,11.90
2018-11-05T10:38:29.444Z,11.80
2018-11-05T10:40:57.655Z,11.90
2018-11-05T10:43:25.933Z,11.80
2018-11-05T10:45:54.182Z,11.90
2018-11-05T10:48:22.367Z,11.80
2018-11-05T10:50:50.559Z,11.70
2018-11-05T10:53:18.874Z,11.80
2018-11-05T10:55:47.081Z,11.90
2018-11-05T10:58:15.418Z,12.10
2018-11-05T11:00:49.037Z,12.10
2018-11-05T11:03:19.524Z,12.10
2018-11-05T11:05:47.733Z,12.20
2018-11-05T11:08:15.911Z,12.30
2018-11-05T11:10:45.287Z,12.20
2018-11-05T11:13:13.602Z,12.40
2018-11-05T11:15:41.897Z,12.40
2018-11-05T11:18:10.069Z,12.20
2018-11-05T11:20:38.269Z,12.30
2018-11-05T11:23:06.538Z,12.10
2018-11-05T11:25:34.810Z,12.20
2018-11-05T11:28:03.217Z,12.30
2018-11-05T11:30:31.370Z,12.10
2018-11-05T11:32:59.557Z,12.20
2018-11-05T11:35:27.785Z,12.20
2018-11-05T11:37:56.056Z,12.20
2018-11-05T11:40:24.510Z,12.20
2018-11-05T11:42:52.698Z,12.30
2018-11-05T11:45:21.813Z,12.40
2018-11-05T11:47:50.063Z,12.20
2018-11-05T11:50:18.511Z,12.10
2018-11-05T11:52:46.890Z,12.20
2018-11-05T11:55:18.354Z,12.10
2018-11-05T11:57:46.717Z,12.30
2018-11-05T12:00:21.226Z,12.30
2018-11-05T12:02:50.110Z,12.50
2018-11-05T12:05:18.491Z,12.60
2018-11-05T12:07:46.602Z,12.70
2018-11-05T12:10:16.490Z,12.60
2018-11-05T12:12:44.897Z,12.70
2018-11-05T12:15:13.979Z,12.40
2018-11-05T12:17:42.761Z,12.80
2018-11-05T12:20:16.159Z,12.60
2018-11-05T12:22:45.142Z,12.60
2018-11-05T12:25:13.385Z,12.70
2018-11-05T12:27:41.793Z,12.80
2018-11-05T12:30:12.636Z,12.90
2018-11-05T12:32:40.866Z,12.90
2018-11-05T12:35:10.652Z,12.90
2018-11-05T12:37:39.076Z,12.50
2018-11-05T12:40:08.695Z,12.30
2018-11-05T12:42:36.915Z,12.50
2018-11-05T12:45:06.039Z,12.40
2018-11-05T12:47:34.175Z,12.60
2018-11-05T12:50:02.423Z,12.70
2018-11-05T12:52:30.647Z,12.60
2018-11-05T12:54:58.826Z,12.80
2018-11-05T12:57:27.023Z,12.80
2018-11-05T12:59:55.277Z,12.80
2018-11-05T13:02:25.264Z,12.80
2018-11-05T13:04:54.046Z,12.80
2018-11-05T13:07:22.413Z,12.70
2018-11-05T13:09:51.168Z,12.60
2018-11-05T13:12:19.461Z,12.50
2018-11-05T13:14:47.765Z,12.50
2018-11-05T13:17:16.048Z,12.50
2018-11-05T13:19:44.380Z,12.50
2018-11-05T13:22:12.747Z,12.50
2018-11-05T13:24:40.951Z,12.60
2018-11-05T13:27:09.201Z,12.80
2018-11-05T13:29:37.553Z,12.90
2018-11-05T13:32:06.228Z,13.00
2018-11-05T13:34:34.461Z,13.20
2018-11-05T13:37:02.923Z,13.20
2018-11-05T13:39:30.994Z,13.20
2018-11-05T13:41:59.245Z,12.90
2018-11-05T13:44:27.496Z,12.60
2018-11-05T13:46:56.469Z,12.50
2018-11-05T13:49:24.327Z,12.50
2018-11-05T13:51:52.475Z,12.40
2018-11-05T13:54:20.873Z,12.50
2018-11-05T13:56:49.166Z,12.50
2018-11-05T13:59:17.458Z,12.50
2018-11-05T14:01:45.693Z,12.40
2018-11-05T14:04:13.951Z,12.40
2018-11-05T14:06:42.278Z,12.40
2018-11-05T14:09:10.652Z,12.50
2018-11-05T14:11:38.969Z,12.40
2018-11-05T14:14:07.216Z,12.40
2018-11-05T14:16:35.593Z,12.40
2018-11-05T14:19:03.861Z,12.50
2018-11-05T14:21:32.139Z,12.50
2018-11-05T14:24:00.491Z,12.60
2018-11-05T14:26:28.792Z,12.60
2018-11-05T14:28:57.528Z,12.70
2018-11-05T14:31:25.594Z,12.90
2018-11-05T14:33:53.875Z,12.90
2018-11-05T14:36:22.141Z,12.80
2018-11-05T14:38:50.395Z,12.90
2018-11-05T14:41:18.670Z,12.90
2018-11-05T14:43:46.996Z,12.90
2018-11-05T14:46:15.208Z,12.90
2018-11-05T14:48:43.536Z,13.00
2018-11-05T14:51:11.759Z,13.00
2018-11-05T14:53:39.925Z,12.90
2018-11-05T14:56:08.551Z,12.90
2018-11-05T14:58:36.877Z,12.90
2018-11-05T15:01:05.122Z,12.80
2018-11-05T15:03:33.351Z,12.80
2018-11-05T15:06:01.606Z,12.70
2018-11-05T15:08:29.871Z,12.60
2018-11-05T15:10:58.194Z,12.60
2018-11-05T15:13:26.458Z,12.40
2018-11-05T15:15:54.680Z,12.40
2018-11-05T15:18:23.079Z,12.40
2018-11-05T15:20:51.184Z,12.30
2018-11-05T15:23:19.412Z,12.20
2018-11-05T15:25:47.795Z,12.20
2018-11-05T15:28:16.011Z,12.20
2018-11-05T15:30:44.322Z,12.10
2018-11-05T15:33:12.524Z,12.00
2018-11-05T15:35:40.745Z,12.00
2018-11-05T15:38:08.994Z,11.90
2018-11-05T15:40:37.292Z,11.80
2018-11-05T15:43:05.674Z,11.70
2018-11-05T15:45:33.914Z,11.70
2018-11-05T15:48:02.228Z,11.60
2018-11-05T15:50:30.553Z,11.60
2018-11-05T15:52:59.159Z,11.60
2018-11-05T15:55:27.169Z,11.40
2018-11-05T15:57:55.486Z,11.40
2018-11-05T16:00:25.426Z,11.20
2018-11-05T16:02:55.193Z,11.20
2018-11-05T16:05:23.424Z,11.10
2018-11-05T16:07:51.713Z,11.00
2018-11-05T16:10:20.212Z,11.00
2018-11-05T16:12:48.764Z,10.90
2018-11-05T16:15:17.043Z,11.00
2018-11-05T16:17:45.301Z,10.80
2018-11-05T16:20:15.076Z,10.70
2018-11-05T16:22:44.089Z,10.50
2018-11-05T16:25:12.437Z,10.40
2018-11-05T16:27:40.917Z,10.10
2018-11-05T16:30:11.364Z,10.00
2018-11-05T16:32:39.723Z,9.80
2018-11-05T16:35:08.372Z,9.70
2018-11-05T16:37:36.711Z,9.60
2018-11-05T16:40:06.748Z,9.50
2018-11-05T16:42:35.039Z,9.40
2018-11-05T16:45:03.417Z,9.40
2018-11-05T16:47:31.649Z,9.40
2018-11-05T16:49:59.857Z,9.30
2018-11-05T16:52:28.105Z,9.30
2018-11-05T16:54:56.294Z,9.20
2018-11-05T16:57:24.582Z,9.20
2018-11-05T16:59:52.892Z,9.10
2018-11-05T17:02:21.786Z,9.10
2018-11-05T17:04:49.428Z,9.00
2018-11-05T17:07:17.626Z,8.90
2018-11-05T17:09:45.823Z,8.80
2018-11-05T17:12:14.056Z,8.80
2018-11-05T17:14:42.297Z,8.70
2018-11-05T17:17:10.520Z,8.70
2018-11-05T17:19:38.713Z,8.60
2018-11-05T17:22:06.927Z,8.50
2018-11-05T17:24:35.189Z,8.50
2018-11-05T17:27:03.415Z,8.50
2018-11-05T17:29:31.686Z,8.40
2018-11-05T17:31:59.953Z,8.30
2018-11-05T17:34:28.141Z,8.30
2018-11-05T17:36:58.426Z,8.30
2018-11-05T17:39:26.741Z,8.20
2018-11-05T17:41:55.062Z,8.20
2018-11-05T17:44:23.326Z,8.10
2018-11-05T17:46:51.615Z,8.10
2018-11-05T17:49:19.923Z,8.10
2018-11-05T17:51:48.226Z,8.00
2018-11-05T17:54:16.512Z,8.00
2018-11-05T17:56:45.491Z,7.90
2018-11-05T17:59:14.800Z,7.90
2018-11-05T18:01:43.078Z,7.90
2018-11-05T18:04:11.353Z,7.80
2018-11-05T18:06:39.626Z,7.80
2018-11-05T18:09:08.617Z,7.80
2018-11-05T18:11:36.799Z,7.80
2018-11-05T18:14:05.225Z,7.70
2018-11-05T18:16:33.474Z,7.70
2018-11-05T18:19:01.883Z,7.60
2018-11-05T18:21:30.092Z,7.60
2018-11-05T18:23:58.370Z,7.60
2018-11-05T18:26:26.689Z,7.60
2018-11-05T18:28:54.963Z,7.60
2018-11-05T18:31:23.278Z,7.70
2018-11-05T18:33:51.537Z,7.70
2018-11-05T18:36:19.855Z,7.60
2018-11-05T18:38:48.111Z,7.60
2018-11-05T18:41:16.408Z,7.60
2018-11-05T18:43:44.686Z,7.60
2018-11-05T18:46:12.903Z,7.60
2018-11-05T18:48:41.281Z,7.60
2018-11-05T18:51:09.733Z,7.60
2018-11-05T18:53:38.030Z,7.50
2018-11-05T18:56:06.407Z,7.50
2018-11-05T18:58:34.861Z,7.50
2018-11-05T19:01:03.441Z,7.40
2018-11-05T19:03:32.083Z,7.40
2018-11-05T19:06:00.438Z,7.40
2018-11-05T19:08:29.115Z,7.40
2018-11-05T19:10:57.462Z,7.40
2018-11-05T19:13:25.781Z,7.30
2018-11-05T19:15:54.126Z,7.30
2018-11-05T19:18:22.478Z,7.30
2018-11-05T19:20:50.728Z,7.20
2018-11-05T19:23:19.114Z,7.30
2018-11-05T19:25:47.178Z,7.30
2018-11-05T19:28:15.399Z,7.30
2018-11-05T19:30:43.871Z,7.20
2018-11-05T19:33:11.917Z,7.10
2018-11-05T19:35:40.259Z,7.10
2018-11-05T19:38:08.465Z,7.00
2018-11-05T19:40:36.757Z,6.90
2018-11-05T19:43:05.533Z,6.90
2018-11-05T19:45:33.675Z,6.80
2018-11-05T19:48:01.864Z,6.80
2018-11-05T19:50:30.191Z,6.80
2018-11-05T19:52:58.462Z,6.80
2018-11-05T19:55:26.679Z,6.70
2018-11-05T19:57:54.872Z,6.60
2018-11-05T20:00:24.592Z,6.50
2018-11-05T20:02:53.105Z,6.50
2018-11-05T20:05:21.397Z,6.50
2018-11-05T20:07:50.699Z,6.50
2018-11-05T20:10:18.953Z,6.40
2018-11-05T20:12:47.345Z,6.50
2018-11-05T20:15:15.819Z,6.40
2018-11-05T20:17:44.758Z,6.30
2018-11-05T20:20:14.316Z,6.40
2018-11-05T20:22:42.508Z,6.30
2018-11-05T20:25:12.090Z,6.20
2018-11-05T20:27:40.940Z,6.30
2018-11-05T20:30:13.670Z,6.20
2018-11-05T20:32:42.157Z,6.30
2018-11-05T20:35:10.593Z,6.20
2018-11-05T20:37:38.995Z,6.20
2018-11-05T20:40:09.335Z,6.10
2018-11-05T20:42:37.405Z,6.00
2018-11-05T20:45:05.697Z,5.90
2018-11-05T20:47:33.961Z,5.90
2018-11-05T20:50:02.301Z,5.90
2018-11-05T20:52:30.494Z,5.90
2018-11-05T20:54:58.728Z,5.80
2018-11-05T20:57:26.908Z,5.80
2018-11-05T20:59:55.216Z,5.70
2018-11-05T21:02:23.463Z,5.80
2018-11-05T21:04:51.687Z,5.80
2018-11-05T21:07:19.890Z,5.70
2018-11-05T21:09:48.112Z,5.80
2018-11-05T21:12:16.418Z,5.70
2018-11-05T21:14:44.676Z,5.70
2018-11-05T21:17:12.904Z,5.70
2018-11-05T21:19:41.335Z,5.70
2018-11-05T21:22:10.742Z,5.70
2018-11-05T21:24:38.957Z,5.70
2018-11-05T21:27:07.370Z,5.60
2018-11-05T21:29:35.513Z,5.70
2018-11-05T21:32:03.686Z,5.70
2018-11-05T21:34:31.931Z,5.70
2018-11-05T21:37:00.313Z,5.70
2018-11-05T21:39:28.525Z,5.70
2018-11-05T21:41:56.716Z,5.70
2018-11-05T21:44:24.931Z,5.70
2018-11-05T21:46:53.137Z,5.70
2018-11-05T21:49:21.801Z,5.80
2018-11-05T21:51:50.124Z,5.80
2018-11-05T21:54:18.480Z,5.90
2018-11-05T21:56:46.686Z,6.00
2018-11-05T21:59:15.000Z,5.90
2018-11-05T22:01:43.259Z,5.90
2018-11-05T22:04:11.673Z,6.00
2018-11-05T22:06:39.895Z,6.00
2018-11-05T22:09:09.450Z,6.00
2018-11-05T22:11:37.758Z,6.00
2018-11-05T22:14:06.017Z,6.00
2018-11-05T22:16:34.232Z,6.00
2018-11-05T22:19:02.599Z,6.00
2018-11-05T22:21:30.879Z,5.90
2018-11-05T22:23:59.153Z,6.00
2018-11-05T22:26:27.488Z,6.00
2018-11-05T22:28:55.732Z,5.90
2018-11-05T22:31:24.074Z,6.00
2018-11-05T22:33:52.448Z,6.00
2018-11-05T22:36:20.782Z,6.00
2018-11-05T22:38:49.046Z,6.00
2018-11-05T22:41:17.316Z,5.90
2018-11-05T22:43:45.621Z,5.90
2018-11-05T22:46:13.952Z,5.90
2018-11-05T22:48:42.443Z,5.80
2018-11-05T22:51:10.885Z,5.70
2018-11-05T22:53:39.169Z,5.70
2018-11-05T22:56:07.652Z,5.70
2018-11-05T22:58:36.012Z,5.60
2018-11-05T23:01:07.450Z,5.50
2018-11-05T23:03:35.754Z,5.40
2018-11-05T23:06:04.033Z,5.40
2018-11-05T23:08:33.430Z,5.40
2018-11-05T23:11:01.712Z,5.30
2018-11-05T23:13:29.998Z,5.20
2018-11-05T23:15:58.257Z,5.10
2018-11-05T23:18:26.658Z,5.10
2018-11-05T23:20:55.073Z,5.00
2018-11-05T23:23:23.311Z,4.90
2018-11-05T23:25:51.779Z,4.90
2018-11-05T23:28:20.053Z,4.90
2018-11-05T23:30:48.399Z,4.90
2018-11-05T23:33:16.670Z,4.80
2018-11-05T23:35:44.910Z,4.80
2018-11-05T23:38:13.182Z,4.80
2018-11-05T23:40:41.455Z,4.70
2018-11-05T23:43:09.751Z,4.70
2018-11-05T23:45:38.406Z,4.60
2018-11-05T23:48:06.746Z,4.70
2018-11-05T23:50:35.026Z,4.70
2018-11-05T23:53:03.677Z,4.60
2018-11-05T23:55:32.005Z,4.50
2018-11-05T23:58:00.370Z,4.50
